.
WxDataArchive / Data Records for 2013-04-21
2013-04-20 April 2013 2013-04-22

Data Records for Sunday, 21 April 2013

Time	Temp	Chill	HIndex	Humid	Dewpt	 Wind 	HiWind	WindDir	Rain 	Barom 
-----	----	-----	------	-----	-----	------	------	-------	-----	----- 
00:00	29.3	29.3	29.3	60	17.2	0	0	---	0.00	30.462 
00:05	29.1	29.1	29.1	61	17.4	0	0	---	0.00	30.462 
00:10	29.0	29.0	29.0	62	17.6	0	0	---	0.00	30.462 
00:15	28.8	28.8	28.8	63	17.8	0	0	---	0.00	30.461 
00:20	28.7	28.7	28.7	63	17.7	0	0	---	0.00	30.461 
00:25	28.5	28.5	28.5	64	17.9	0	0	---	0.00	30.461 
00:30	28.4	28.4	28.4	64	17.8	0	0	---	0.00	30.463 
00:35	28.4	28.4	28.4	65	18.2	0	0	---	0.00	30.463 
00:40	28.1	28.1	28.1	66	18.2	0	0	---	0.00	30.463 
00:45	27.9	27.9	27.9	66	18.0	0	0	---	0.00	30.469 
00:50	27.8	27.8	27.8	66	17.9	0	0	---	0.00	30.469 
00:55	27.5	27.5	27.5	66	17.7	0	0	---	0.00	30.469 
01:00	27.3	27.3	27.3	67	17.8	0	0	---	0.00	30.476 
01:05	27.2	27.2	27.2	68	18.1	0	0	---	0.00	30.476 
01:10	27.2	27.2	27.2	68	18.1	0	0	---	0.00	30.476 
01:15	27.0	27.0	27.0	69	18.2	0	0	---	0.00	30.476 
01:20	26.9	26.9	26.9	70	18.4	0	0	---	0.00	30.476 
01:25	26.7	26.7	26.7	70	18.3	0	0	---	0.00	30.476 
01:30	26.6	26.6	26.6	70	18.2	0	0	---	0.00	30.477 
01:35	26.3	26.3	26.3	70	17.9	0	0	---	0.00	30.477 
01:40	26.1	26.1	26.1	71	18.0	0	0	---	0.00	30.477 
01:45	26.0	26.0	26.0	72	18.2	0	0	---	0.00	30.477 
01:50	26.0	26.0	26.0	73	18.6	0	0	---	0.00	30.477 
01:55	26.0	26.0	26.0	73	18.6	0	0	---	0.00	30.477 
02:00	25.8	25.8	25.8	74	18.7	0	0	---	0.00	30.477 
02:05	25.8	25.8	25.8	74	18.7	0	0	---	0.00	30.477 
02:10	25.7	25.7	25.7	74	18.6	0	0	---	0.00	30.477 
02:15	25.6	25.6	25.6	75	18.8	0	0	---	0.00	30.476 
02:20	25.4	25.4	25.4	75	18.6	0	0	---	0.00	30.476 
02:25	25.3	25.3	25.3	75	18.5	0	0	---	0.00	30.476 
02:30	25.3	25.3	25.3	76	18.8	0	0	---	0.00	30.478 
02:35	25.3	25.3	25.3	76	18.8	0	0	---	0.00	30.478 
02:40	25.1	25.1	25.1	76	18.6	0	0	---	0.00	30.478 
02:45	25.0	25.0	25.0	77	18.8	0	0	---	0.00	30.478 
02:50	24.8	24.8	24.8	77	18.6	0	0	---	0.00	30.478 
02:55	24.8	24.8	24.8	77	18.6	0	0	---	0.00	30.478 
03:00	24.7	24.7	24.7	78	18.8	0	0	---	0.00	30.478 
03:05	24.5	24.5	24.5	78	18.6	0	0	---	0.00	30.478 
03:10	24.4	24.4	24.4	78	18.5	0	0	---	0.00	30.478 
03:15	24.4	24.4	24.4	79	18.8	0	0	---	0.00	30.481 
03:20	24.2	24.2	24.2	79	18.6	0	0	---	0.00	30.481 
03:25	24.1	24.1	24.1	79	18.5	0	0	---	0.00	30.481 
03:30	23.9	23.9	23.9	79	18.4	0	0	---	0.00	30.483 
03:35	23.8	23.8	23.8	80	18.5	0	0	---	0.00	30.483 
03:40	23.6	23.6	23.6	80	18.4	0	0	---	0.00	30.483 
03:45	23.6	23.6	23.6	81	18.6	0	0	---	0.00	30.487 
03:50	23.6	23.6	23.6	81	18.6	0	0	---	0.00	30.487 
03:55	23.6	23.6	23.6	81	18.6	0	0	---	0.00	30.487 
04:00	23.6	23.6	23.6	82	18.9	0	0	---	0.00	30.492 
04:05	23.6	23.6	23.6	82	18.9	0	0	---	0.00	30.492 
04:10	23.6	23.6	23.6	82	18.9	0	0	---	0.00	30.492 
04:15	23.5	23.5	23.5	83	19.1	0	0	---	0.00	30.493 
04:20	23.5	23.5	23.5	83	19.1	0	0	---	0.00	30.493 
04:25	23.5	23.5	23.5	83	19.1	0	0	---	0.00	30.493 
04:30	23.3	23.3	23.3	83	18.9	0	0	---	0.00	30.496 
04:35	23.3	23.3	23.3	84	19.2	0	0	---	0.00	30.496 
04:40	23.3	23.3	23.3	84	19.2	0	0	---	0.00	30.496 
04:45	23.3	23.3	23.3	84	19.2	0	0	---	0.00	30.508 
04:50	23.2	23.2	23.2	84	19.1	0	0	---	0.00	30.508 
04:55	23.2	23.2	23.2	84	19.1	0	0	---	0.00	30.508 
05:00	23.2	23.2	23.2	84	19.1	0	0	---	0.00	30.510 
05:05	23.0	23.0	23.0	84	18.9	0	0	---	0.00	30.510 
05:10	23.0	23.0	23.0	84	18.9	0	0	---	0.00	30.510 
05:15	23.0	23.0	23.0	83	18.6	0	0	---	0.00	30.511 
05:20	23.0	23.0	23.0	83	18.6	0	0	---	0.00	30.511 
05:25	23.0	23.0	23.0	83	18.6	0	0	---	0.00	30.511 
05:30	23.2	23.2	23.2	83	18.8	0	0	---	0.00	30.511 
05:35	23.2	23.2	23.2	83	18.8	0	0	---	0.00	30.511 
05:40	23.3	23.3	23.3	83	18.9	0	0	---	0.00	30.511 
05:45	23.6	23.6	23.6	83	19.2	0	0	---	0.00	30.511 
05:50	23.6	23.6	23.6	83	19.2	0	0	---	0.00	30.511 
05:55	23.8	23.8	23.8	82	19.1	0	0	---	0.00	30.511 
06:00	23.8	23.8	23.8	82	19.1	0	0	---	0.00	30.522 
06:05	23.8	23.8	23.8	82	19.1	0	0	---	0.00	30.522 
06:10	23.8	23.8	23.8	82	19.1	0	0	---	0.00	30.522 
06:15	23.6	23.6	23.6	82	18.9	0	0	---	0.00	30.528 
06:20	23.5	23.5	23.5	82	18.8	0	0	---	0.00	30.528 
06:25	23.5	23.5	23.5	82	18.8	0	0	---	0.00	30.528 
06:30	23.5	23.5	23.5	82	18.8	0	0	---	0.00	30.536 
06:35	23.5	23.5	23.5	82	18.8	0	0	---	0.00	30.536 
06:40	23.3	23.3	23.3	82	18.6	0	0	---	0.00	30.536 
06:45	23.3	23.3	23.3	82	18.6	0	0	---	0.00	30.545 
06:50	23.3	23.3	23.3	82	18.6	0	0	---	0.00	30.545 
06:55	23.5	23.5	23.5	82	18.8	0	0	---	0.00	30.545 
07:00	23.3	23.3	23.3	82	18.6	0	0	---	0.00	30.553 
07:05	23.3	23.3	23.3	82	18.6	0	0	---	0.00	30.553 
07:10	23.5	23.5	23.5	82	18.8	0	0	---	0.00	30.553 
07:15	23.5	23.5	23.5	82	18.8	0	0	---	0.00	30.561 
07:20	23.5	23.5	23.5	82	18.8	0	0	---	0.00	30.561 
07:25	23.6	23.6	23.6	82	18.9	0	0	---	0.00	30.561 
07:30	23.8	23.8	23.8	83	19.4	0	0	---	0.00	30.566 
07:35	24.1	24.1	24.1	84	20.0	0	0	---	0.00	30.566 
07:40	24.7	24.7	24.7	84	20.6	0	0	---	0.00	30.566 
07:45	25.7	25.7	25.7	85	21.8	0	0	---	0.00	30.573 
07:50	27.3	27.3	27.3	83	22.8	0	1	0	0.00	30.573 
07:55	28.7	28.7	28.7	79	23.0	0	2	0	0.00	30.573 
08:00	29.7	29.7	29.7	76	23.1	0	1	0	0.00	30.575 
08:05	30.7	30.7	30.7	73	23.1	0	2	0	0.00	30.575 
08:10	31.8	31.8	31.8	72	23.8	0	2	0	0.00	30.575 
08:15	32.5	32.5	32.5	70	23.8	1	3	0	0.00	30.583 
08:20	32.7	32.7	32.7	67	23.0	2	5	90	0.00	30.583 
08:25	32.7	32.7	32.7	68	23.3	1	4	90	0.00	30.583 
08:30	32.9	32.9	32.9	67	23.2	1	3	90	0.00	30.584 
08:35	33.4	33.4	33.4	67	23.6	1	4	90	0.00	30.584 
08:40	33.5	33.5	33.5	65	23.0	2	3	90	0.00	30.584 
08:45	33.7	33.7	33.7	66	23.6	2	4	90	0.00	30.584 
08:50	34.1	34.1	34.1	66	23.9	2	5	90	0.00	30.584 
08:55	34.6	34.6	34.6	66	24.4	2	4	90	0.00	30.584 
09:00	35.0	35.0	35.0	65	24.4	2	4	90	0.00	30.584 
09:05	35.2	35.2	35.2	65	24.6	3	6	90	0.00	30.584 
09:10	35.3	35.3	35.3	64	24.4	3	7	90	0.00	30.584 
09:15	35.6	35.6	35.6	65	25.0	3	9	90	0.00	30.583 
09:20	36.0	36.0	36.0	65	25.4	3	7	90	0.00	30.583 
09:25	36.8	36.8	36.8	62	25.0	3	7	90	0.00	30.583 
09:30	37.3	37.3	37.3	60	24.7	3	6	112	0.00	30.583 
09:35	37.8	37.8	37.8	57	24.0	3	6	112	0.00	30.583 
09:40	38.2	38.2	38.2	57	24.3	3	11	112	0.00	30.583 
09:45	38.3	35.4	38.3	58	24.8	4	8	112	0.00	30.582 
09:50	38.2	33.6	38.2	58	24.7	6	12	112	0.00	30.582 
09:55	38.3	35.4	38.3	60	25.6	4	9	90	0.00	30.582 
10:00	38.2	33.6	38.2	62	26.3	6	11	90	0.00	30.582 
10:05	38.3	34.5	38.3	62	26.4	5	12	112	0.00	30.582 
10:10	38.3	34.5	38.3	62	26.4	5	10	90	0.00	30.582 
10:15	38.8	35.9	38.8	63	27.3	4	9	90	0.00	30.586 
10:20	39.3	34.9	39.3	61	27.0	6	13	112	0.00	30.586 
10:25	39.3	34.3	39.3	61	27.0	7	15	112	0.00	30.586 
10:30	39.2	33.6	39.2	61	26.9	8	14	90	0.00	30.588 
10:35	39.3	34.9	39.3	61	27.0	6	15	90	0.00	30.588 
10:40	39.5	34.5	39.5	57	25.5	7	13	112	0.00	30.588 
10:45	39.9	35.6	39.9	56	25.5	6	12	90	0.00	30.587 
10:50	40.3	36.8	40.3	54	25.0	5	12	90	0.00	30.587 
10:55	40.5	36.4	40.5	54	25.2	6	12	90	0.00	30.587 
11:00	40.8	38.2	40.8	56	26.3	4	11	90	0.00	30.590 
11:05	41.1	38.6	41.1	54	25.7	4	10	112	0.00	30.590 
11:10	41.1	37.1	41.1	55	26.2	6	11	112	0.00	30.590 
11:15	41.6	41.6	41.6	54	26.2	3	6	112	0.00	30.595 
11:20	42.3	40.0	42.3	54	26.9	4	11	90	0.00	30.595 
11:25	42.2	42.2	42.2	52	25.9	3	11	90	0.00	30.595 
11:30	42.3	42.3	42.3	51	25.5	3	10	112	0.00	30.588 
11:35	42.6	42.6	42.6	52	26.2	3	9	112	0.00	30.588 
11:40	43.1	40.9	43.1	53	27.1	4	10	112	0.00	30.588 
11:45	43.2	41.0	43.2	52	26.8	4	9	112	0.00	30.591 
11:50	42.6	39.5	42.6	50	25.3	5	12	90	0.00	30.591 
11:55	42.6	42.6	42.6	53	26.7	2	7	112	0.00	30.591 
12:00	43.2	43.2	43.2	54	27.7	2	6	90	0.00	30.588 
12:05	43.5	41.4	43.5	52	27.1	4	9	90	0.00	30.588 
12:10	43.6	43.6	43.6	52	27.1	3	7	112	0.00	30.588 
12:15	44.2	44.2	44.2	51	27.2	2	6	112	0.00	30.587 
12:20	44.2	42.2	44.2	50	26.8	4	12	112	0.00	30.587 
12:25	44.3	44.3	44.3	50	26.8	3	10	90	0.00	30.587 
12:30	44.5	42.5	44.5	51	27.5	4	12	112	0.00	30.582 
12:35	44.5	41.8	44.5	50	27.0	5	12	90	0.00	30.582 
12:40	44.2	42.2	44.2	54	28.6	4	9	90	0.00	30.582 
12:45	44.5	42.5	44.5	49	26.5	4	11	90	0.00	30.576 
12:50	44.9	44.9	44.9	53	28.8	3	7	112	0.00	30.576 
12:55	45.4	45.4	45.4	52	28.8	3	8	112	0.00	30.576 
13:00	45.1	45.1	45.1	53	29.0	3	13	90	0.00	30.567 
13:05	45.2	43.3	45.2	49	27.2	4	11	90	0.00	30.567 
13:10	45.5	43.7	45.5	51	28.4	4	10	112	0.00	30.567 
13:15	45.7	43.9	45.7	49	27.6	4	9	90	0.00	30.561 
13:20	45.8	44.0	45.8	50	28.2	4	11	90	0.00	30.561 
13:25	46.2	44.5	46.2	48	27.6	4	11	112	0.00	30.561 
13:30	46.0	43.5	46.0	50	28.4	5	13	112	0.00	30.554 
13:35	46.2	44.5	46.2	49	28.1	4	9	112	0.00	30.554 
13:40	46.4	44.7	46.4	48	27.8	4	11	90	0.00	30.554 
13:45	46.8	46.8	46.8	47	27.6	3	7	112	0.00	30.550 
13:50	47.1	47.1	47.1	46	27.4	3	10	90	0.00	30.550 
13:55	47.4	47.4	47.4	45	27.1	3	11	90	0.00	30.550 
14:00	47.4	45.9	47.4	46	27.7	4	11	90	0.00	30.544 
14:05	47.1	44.8	47.1	47	27.9	5	12	90	0.00	30.544 
14:10	47.3	45.0	47.3	46	27.6	5	12	90	0.00	30.544 
14:15	47.4	47.4	47.4	47	28.2	2	7	112	0.00	30.536 
14:20	47.6	46.1	47.6	43	26.2	4	10	112	0.00	30.536 
14:25	47.6	47.6	47.6	44	26.8	3	7	90	0.00	30.536 
14:30	48.0	48.0	48.0	46	28.2	3	6	112	0.00	30.532 
14:35	48.5	47.1	48.5	46	28.7	4	10	90	0.00	30.532 
14:40	48.3	48.3	48.3	44	27.4	3	9	90	0.00	30.532 
14:45	48.6	48.6	48.6	47	29.3	2	8	112	0.00	30.521 
14:50	48.5	47.1	48.5	46	28.7	4	10	112	0.00	30.521 
14:55	48.5	48.5	48.5	46	28.7	3	7	90	0.00	30.521 
15:00	48.6	48.6	48.6	45	28.2	3	10	90	0.00	30.518 
15:05	48.9	48.9	48.9	45	28.5	3	7	90	0.00	30.518 
15:10	48.8	48.8	48.8	45	28.4	3	5	112	0.00	30.518 
15:15	49.2	49.2	49.2	45	28.8	3	7	112	0.00	30.511 
15:20	49.4	49.4	49.4	43	27.9	3	10	90	0.00	30.511 
15:25	49.1	47.8	49.1	43	27.6	4	9	90	0.00	30.511 
15:30	49.1	49.1	49.1	43	27.6	3	7	90	0.00	30.505 
15:35	49.1	49.1	49.1	45	28.7	2	6	112	0.00	30.505 
15:40	49.2	49.2	49.2	46	29.3	3	8	112	0.00	30.505 
15:45	49.2	49.2	49.2	46	29.3	2	8	135	0.00	30.494 
15:50	49.2	47.9	49.2	42	27.1	4	9	90	0.00	30.494 
15:55	48.9	47.6	48.9	43	27.4	4	10	112	0.00	30.494 
16:00	49.1	49.1	49.1	43	27.6	2	7	112	0.00	30.488 
16:05	48.9	47.6	48.9	46	29.0	4	14	112	0.00	30.488 
16:10	49.1	49.1	49.1	45	28.7	3	10	112	0.00	30.488 
16:15	49.2	47.9	49.2	43	27.7	4	9	112	0.00	30.479 
16:20	48.9	47.6	48.9	44	28.0	4	8	112	0.00	30.479 
16:25	48.9	48.9	48.9	45	28.5	3	9	112	0.00	30.479 
16:30	49.2	49.2	49.2	43	27.7	3	10	90	0.00	30.473 
16:35	49.4	49.4	49.4	44	28.4	3	12	112	0.00	30.473 
16:40	49.5	48.3	49.5	43	27.9	4	14	90	0.00	30.473 
16:45	49.4	47.5	49.4	43	27.9	5	11	112	0.00	30.470 
16:50	49.5	48.3	49.5	45	29.0	4	10	90	0.00	30.470 
16:55	49.5	47.6	49.5	42	27.4	5	13	112	0.00	30.470 
17:00	49.5	49.5	49.5	43	27.9	2	6	112	0.00	30.460 
17:05	49.6	48.4	49.6	45	29.1	4	10	112	0.00	30.460 
17:10	49.8	48.0	49.8	45	29.3	5	12	90	0.00	30.460 
17:15	49.8	48.6	49.8	42	27.6	4	8	90	0.00	30.460 
17:20	49.8	49.8	49.8	42	27.6	3	11	112	0.00	30.460 
17:25	49.6	48.4	49.6	43	28.0	4	8	90	0.00	30.460 
17:30	49.6	47.7	49.6	42	27.5	5	10	112	0.00	30.458 
17:35	49.6	49.6	49.6	41	26.9	3	12	90	0.00	30.458 
17:40	49.6	47.7	49.6	41	26.9	5	12	90	0.00	30.458 
17:45	49.5	49.5	49.5	42	27.4	3	8	112	0.00	30.457 
17:50	49.4	48.2	49.4	43	27.9	4	13	90	0.00	30.457 
17:55	49.5	49.5	49.5	42	27.4	3	13	90	0.00	30.457 
18:00	49.4	48.2	49.4	42	27.3	4	12	90	0.00	30.457 
18:05	49.5	49.5	49.5	43	27.9	3	6	90	0.00	30.457 
18:10	49.6	49.6	49.6	43	28.0	3	9	90	0.00	30.457 
18:15	49.5	48.3	49.5	41	26.8	4	11	112	0.00	30.457 
18:20	49.5	48.3	49.5	43	27.9	4	10	112	0.00	30.457 
18:25	49.4	48.2	49.4	41	26.7	4	12	112	0.00	30.457 
18:30	49.2	47.9	49.2	41	26.5	4	7	90	0.00	30.457 
18:35	49.2	49.2	49.2	42	27.1	3	7	112	0.00	30.457 
18:40	49.2	47.3	49.2	43	27.7	5	13	90	0.00	30.457 
18:45	49.1	47.8	49.1	42	27.0	4	10	90	0.00	30.455 
18:50	49.1	47.8	49.1	43	27.6	4	10	112	0.00	30.455 
18:55	48.9	46.9	48.9	41	26.2	5	11	90	0.00	30.455 
19:00	48.9	47.6	48.9	43	27.4	4	11	112	0.00	30.450 
19:05	48.8	46.8	48.8	42	26.7	5	9	90	0.00	30.450 
19:10	48.8	48.8	48.8	43	27.3	3	7	112	0.00	30.450 
19:15	48.8	46.8	48.8	43	27.3	5	9	112	0.00	30.443 
19:20	48.6	47.3	48.6	44	27.7	4	7	112	0.00	30.443 
19:25	48.5	47.1	48.5	45	28.1	4	7	90	0.00	30.443 
19:30	48.5	48.5	48.5	45	28.1	2	6	112	0.00	30.441 
19:35	48.3	46.9	48.3	44	27.4	4	10	90	0.00	30.441 
19:40	48.3	48.3	48.3	44	27.4	3	9	90	0.00	30.441 
19:45	48.2	48.2	48.2	45	27.9	3	7	90	0.00	30.445 
19:50	48.0	46.6	48.0	45	27.7	4	9	90	0.00	30.445 
19:55	48.0	46.6	48.0	45	27.7	4	9	90	0.00	30.445 
20:00	47.9	47.9	47.9	46	28.1	3	7	90	0.00	30.445 
20:05	47.6	47.6	47.6	46	27.9	3	9	90	0.00	30.445 
20:10	47.4	47.4	47.4	47	28.2	2	4	112	0.00	30.445 
20:15	47.3	47.3	47.3	48	28.6	2	4	112	0.00	30.442 
20:20	47.0	47.0	47.0	49	28.8	1	3	112	0.00	30.442 
20:25	46.8	46.8	46.8	50	29.2	2	5	112	0.00	30.442 
20:30	46.5	46.5	46.5	51	29.4	1	4	112	0.00	30.442 
20:35	46.2	46.2	46.2	51	29.1	2	4	112	0.00	30.442 
20:40	46.1	46.1	46.1	52	29.5	2	5	68	0.00	30.442 
20:45	45.8	45.8	45.8	52	29.2	2	8	90	0.00	30.442 
20:50	45.7	45.7	45.7	52	29.1	2	6	90	0.00	30.442 
20:55	45.5	45.5	45.5	53	29.4	1	4	90	0.00	30.442 
21:00	45.2	45.2	45.2	53	29.1	1	3	90	0.00	30.442 
21:05	45.1	45.1	45.1	53	29.0	2	5	90	0.00	30.442 
21:10	44.9	44.9	44.9	54	29.3	2	4	90	0.00	30.442 
21:15	44.6	44.6	44.6	55	29.4	1	4	90	0.00	30.441 
21:20	44.5	44.5	44.5	55	29.3	1	3	90	0.00	30.441 
21:25	44.3	44.3	44.3	56	29.6	1	3	90	0.00	30.441 
21:30	44.2	44.2	44.2	57	29.9	2	4	90	0.00	30.441 
21:35	44.1	42.1	44.1	59	30.7	4	11	90	0.00	30.441 
21:40	43.9	43.9	43.9	62	31.7	3	7	90	0.00	30.441 
21:45	43.5	43.5	43.5	63	31.8	3	7	90	0.00	30.446 
21:50	43.1	43.1	43.1	65	32.1	3	7	90	0.00	30.446 
21:55	42.8	40.6	42.8	65	31.9	4	8	90	0.00	30.446 
22:00	42.6	42.6	42.6	66	32.0	3	9	90	0.00	30.449 
22:05	42.3	40.0	42.3	67	32.1	4	10	90	0.00	30.449 
22:10	42.1	39.7	42.1	67	31.9	4	8	90	0.00	30.449 
22:15	41.8	39.4	41.8	68	32.0	4	10	90	0.00	30.447 
22:20	41.6	41.6	41.6	68	31.8	3	10	112	0.00	30.447 
22:25	41.3	38.8	41.3	68	31.5	4	7	90	0.00	30.447 
22:30	41.2	37.9	41.2	68	31.5	5	13	90	0.00	30.448 
22:35	41.1	37.8	41.1	67	31.0	5	10	90	0.00	30.448 
22:40	41.1	38.6	41.1	67	31.0	4	10	90	0.00	30.448 
22:45	40.8	38.2	40.8	68	31.1	4	8	90	0.00	30.448 
22:50	40.5	40.5	40.5	69	31.1	3	5	112	0.00	30.448 
22:55	40.2	40.2	40.2	70	31.2	3	6	90	0.00	30.448 
23:00	39.9	39.9	39.9	71	31.3	3	7	90	0.00	30.447 
23:05	39.6	39.6	39.6	72	31.3	3	7	90	0.00	30.447 
23:10	39.5	39.5	39.5	72	31.2	2	7	90	0.00	30.447 
23:15	39.3	39.3	39.3	73	31.4	3	5	90	0.00	30.437 
23:20	39.1	39.1	39.1	73	31.2	3	6	90	0.00	30.437 
23:25	38.9	38.9	38.9	73	31.0	3	6	90	0.00	30.437 
23:30	38.8	38.8	38.8	73	30.9	3	9	90	0.00	30.434 
23:35	38.6	38.6	38.6	73	30.7	3	9	90	0.00	30.434 
23:40	38.5	35.6	38.5	73	30.6	4	10	90	0.00	30.434 
23:45	38.2	38.2	38.2	73	30.3	3	5	90	0.00	30.434 
23:50	38.0	38.0	38.0	73	30.1	3	8	90	0.00	30.434 
23:55	37.8	37.8	37.8	73	29.9	3	7	90	0.00	30.434 

CoCoRaHS
IN-AL-39
A2 Web Hosting
Creative Commons License
GoDaddy
search engine by freefind advanced

loaded 2018-11-15 18:02:33 • last modified 2010-11-18 10:43:29
Privacy PolicyDisclaimer
• wx.awcolley.com is powered by PmWiki v.2002016 •
• all content (unless otherwise noted) © 2018 A W Colley